createdAt,value
2023-04-16T00:00:13.516Z,59.24
2023-04-16T00:01:13.606Z,91.27
2023-04-16T00:02:13.774Z,153.51
2023-04-16T00:03:13.823Z,198.79
2023-04-16T00:04:13.798Z,174.22
2023-04-16T00:05:13.924Z,131.98
2023-04-16T00:06:13.878Z,118.47
2023-04-16T00:07:13.933Z,112.65
2023-04-16T00:08:13.975Z,61.13
2023-04-16T00:09:14.053Z,1.98
2023-04-16T00:10:14.933Z,0.00
2023-04-16T00:11:14.124Z,0.00
2023-04-16T00:12:14.188Z,7.30
2023-04-16T00:13:14.201Z,44.24
2023-04-16T00:14:14.197Z,78.59
2023-04-16T00:15:14.201Z,90.09
2023-04-16T00:16:14.293Z,85.79
2023-04-16T00:17:14.306Z,81.37
2023-04-16T00:18:14.341Z,77.80
2023-04-16T00:19:14.374Z,55.28
2023-04-16T00:20:14.467Z,41.80
2023-04-16T00:21:14.459Z,61.47
2023-04-16T00:22:14.454Z,71.58
2023-04-16T00:23:14.482Z,68.70
2023-04-16T00:24:14.517Z,23.82
2023-04-16T00:25:14.524Z,26.35
2023-04-16T00:26:14.519Z,26.73
2023-04-16T00:27:14.543Z,33.49
2023-04-16T00:28:14.571Z,28.95
2023-04-16T00:29:14.561Z,50.32
2023-04-16T00:30:14.567Z,29.08
2023-04-16T00:31:14.639Z,16.66
2023-04-16T00:32:14.513Z,25.51
2023-04-16T00:33:14.593Z,25.85
2023-04-16T00:34:14.617Z,15.76
2023-04-16T00:35:14.642Z,24.31
2023-04-16T00:36:14.624Z,25.28
2023-04-16T00:37:14.657Z,19.81
2023-04-16T00:38:14.698Z,0.00
2023-04-16T00:39:14.841Z,0.00
2023-04-16T00:40:14.718Z,0.00
2023-04-16T00:41:14.712Z,23.20
2023-04-16T00:42:14.810Z,30.34
2023-04-16T00:43:14.737Z,25.42
2023-04-16T00:44:14.761Z,37.88
2023-04-16T00:45:14.838Z,25.90
2023-04-16T00:46:14.953Z,55.05
2023-04-16T00:47:15.108Z,69.15
2023-04-16T00:48:15.045Z,81.24
2023-04-16T00:49:15.041Z,82.41
2023-04-16T00:50:15.142Z,103.79
2023-04-16T00:51:15.240Z,117.29
2023-04-16T00:52:15.258Z,132.54
2023-04-16T00:53:15.326Z,112.01
2023-04-16T00:54:15.368Z,87.95
2023-04-16T00:55:15.444Z,62.30
2023-04-16T00:56:15.918Z,55.91
2023-04-16T00:57:15.581Z,56.92
2023-04-16T00:58:15.605Z,52.13
2023-04-16T00:59:15.620Z,61.06
2023-04-16T01:00:15.630Z,75.80
2023-04-16T01:01:15.661Z,76.43
2023-04-16T01:02:15.726Z,87.48
2023-04-16T01:03:15.822Z,111.62
2023-04-16T01:04:15.781Z,128.86
2023-04-16T01:05:15.686Z,130.47
2023-04-16T01:06:15.789Z,132.68
2023-04-16T01:07:15.800Z,131.73
2023-04-16T01:08:15.852Z,102.74
2023-04-16T01:09:15.915Z,87.62
2023-04-16T01:10:15.950Z,75.18
2023-04-16T01:11:15.958Z,58.12
2023-04-16T01:12:15.978Z,53.19
2023-04-16T01:13:15.987Z,86.61
2023-04-16T01:14:16.013Z,98.78
2023-04-16T01:15:16.057Z,92.83
2023-04-16T01:16:16.123Z,92.05
2023-04-16T01:17:16.076Z,85.24
2023-04-16T01:18:16.073Z,70.66
2023-04-16T01:19:16.148Z,56.16
2023-04-16T01:20:16.168Z,42.74
2023-04-16T01:21:16.200Z,23.60
2023-04-16T01:22:16.242Z,24.11
2023-04-16T01:23:16.212Z,35.74
2023-04-16T01:24:16.229Z,44.08
2023-04-16T01:25:16.247Z,59.21
2023-04-16T01:26:16.287Z,74.85
2023-04-16T01:27:16.280Z,74.35
2023-04-16T01:28:16.202Z,72.11
2023-04-16T01:29:16.278Z,74.49
2023-04-16T01:30:16.321Z,91.08
2023-04-16T01:31:16.425Z,99.14
2023-04-16T01:32:16.530Z,117.52
2023-04-16T01:33:16.507Z,116.99
2023-04-16T01:34:16.500Z,102.13
2023-04-16T01:35:16.535Z,89.10
2023-04-16T01:36:16.583Z,79.41
2023-04-16T01:37:16.570Z,79.25
2023-04-16T01:38:16.602Z,67.55
2023-04-16T01:39:16.639Z,65.30
2023-04-16T01:40:16.632Z,77.20
2023-04-16T01:41:16.586Z,112.22
2023-04-16T01:42:16.601Z,147.92
2023-04-16T01:43:16.676Z,157.29
2023-04-16T01:44:16.677Z,142.77
2023-04-16T01:45:16.642Z,157.71
2023-04-16T01:46:16.686Z,174.81
2023-04-16T01:47:16.681Z,179.83
2023-04-16T01:48:16.727Z,176.85
2023-04-16T01:49:16.726Z,186.02
2023-04-16T01:50:16.798Z,153.51
2023-04-16T01:51:16.805Z,173.44
2023-04-16T01:52:16.844Z,185.37
2023-04-16T01:53:16.922Z,186.84
2023-04-16T01:54:16.953Z,193.60
2023-04-16T01:55:16.977Z,190.41
2023-04-16T01:56:16.988Z,194.06
2023-04-16T01:57:16.987Z,198.23
2023-04-16T01:58:17.050Z,195.11
2023-04-16T01:59:17.133Z,175.61
2023-04-16T02:00:17.208Z,158.39
2023-04-16T02:01:17.249Z,118.41
2023-04-16T02:02:17.424Z,106.77
2023-04-16T02:03:17.510Z,130.36
2023-04-16T02:04:17.436Z,125.98
2023-04-16T02:05:17.516Z,132.70
2023-04-16T02:06:17.515Z,136.51
2023-04-16T02:07:17.502Z,132.50
2023-04-16T02:08:17.492Z,132.40
2023-04-16T02:09:17.510Z,110.17
2023-04-16T02:10:17.543Z,130.71
2023-04-16T02:11:17.535Z,131.65
2023-04-16T02:12:17.603Z,140.39
2023-04-16T02:13:17.710Z,156.12
2023-04-16T02:14:17.823Z,158.16
2023-04-16T02:15:17.930Z,168.93
2023-04-16T02:16:18.018Z,169.63
2023-04-16T02:17:17.957Z,166.23
2023-04-16T02:18:18.013Z,161.45
2023-04-16T02:19:18.060Z,135.97
2023-04-16T02:20:18.164Z,121.20
2023-04-16T02:21:18.164Z,113.91
2023-04-16T02:22:18.229Z,96.91
2023-04-16T02:23:18.308Z,81.99
2023-04-16T02:24:18.363Z,65.86
2023-04-16T02:25:18.397Z,44.16
2023-04-16T02:26:18.454Z,33.15
2023-04-16T02:27:18.455Z,25.34
2023-04-16T02:28:18.474Z,47.75
2023-04-16T02:29:18.526Z,57.61
2023-04-16T02:30:18.600Z,62.17
2023-04-16T02:31:18.712Z,83.39
2023-04-16T02:32:18.720Z,86.22
2023-04-16T02:33:18.791Z,92.87
2023-04-16T02:34:18.829Z,118.13
2023-04-16T02:35:18.901Z,142.81
2023-04-16T02:36:18.923Z,141.75
2023-04-16T02:37:18.996Z,143.17
2023-04-16T02:38:18.974Z,104.48
2023-04-16T02:39:18.968Z,82.32
2023-04-16T02:40:18.998Z,83.41
2023-04-16T02:41:18.971Z,78.85
2023-04-16T02:42:19.037Z,78.78
2023-04-16T02:43:18.998Z,85.70
2023-04-16T02:44:18.944Z,86.27
2023-04-16T02:45:18.973Z,95.70
2023-04-16T02:46:19.080Z,105.58
2023-04-16T02:47:18.997Z,107.81
2023-04-16T02:48:19.009Z,105.47
2023-04-16T02:49:19.082Z,107.21
2023-04-16T02:50:19.191Z,100.62
2023-04-16T02:51:19.191Z,76.68
2023-04-16T02:52:19.210Z,55.61
2023-04-16T02:53:19.250Z,88.59
2023-04-16T02:54:19.258Z,88.47
2023-04-16T02:55:19.385Z,95.94
2023-04-16T02:56:19.393Z,98.20
2023-04-16T02:57:19.406Z,97.69
2023-04-16T02:58:19.492Z,102.44
2023-04-16T02:59:19.601Z,92.84
2023-04-16T03:00:19.623Z,109.87
2023-04-16T03:01:19.661Z,117.77
2023-04-16T03:02:19.675Z,114.76
2023-04-16T03:03:19.716Z,117.85
2023-04-16T03:04:19.736Z,121.59
2023-04-16T03:05:19.682Z,116.63
2023-04-16T03:06:19.667Z,114.25
2023-04-16T03:07:19.718Z,113.19
2023-04-16T03:08:19.706Z,111.36
2023-04-16T03:09:19.737Z,104.37
2023-04-16T03:10:19.746Z,120.48
2023-04-16T03:11:19.766Z,135.01
2023-04-16T03:12:19.771Z,138.14
2023-04-16T03:13:19.798Z,147.65
2023-04-16T03:14:19.820Z,152.13
2023-04-16T03:15:19.852Z,150.59
2023-04-16T03:16:20.221Z,162.57
2023-04-16T03:17:19.932Z,154.58
2023-04-16T03:18:20.028Z,142.31
2023-04-16T03:19:20.114Z,127.51
2023-04-16T03:20:20.312Z,127.45
2023-04-16T03:21:20.283Z,129.20
2023-04-16T03:22:20.294Z,130.40
2023-04-16T03:23:20.284Z,119.15
2023-04-16T03:24:20.372Z,90.44
2023-04-16T03:25:20.326Z,78.53
2023-04-16T03:26:20.310Z,91.98
2023-04-16T03:27:20.366Z,85.78
2023-04-16T03:28:20.418Z,33.27
2023-04-16T03:29:20.368Z,30.27
2023-04-16T03:30:20.410Z,27.57
2023-04-16T03:31:20.431Z,18.30
2023-04-16T03:32:20.554Z,19.00
2023-04-16T03:33:20.466Z,30.15
2023-04-16T03:34:20.497Z,57.31
2023-04-16T03:35:20.511Z,59.61
2023-04-16T03:36:20.542Z,58.81
2023-04-16T03:37:20.575Z,62.18
2023-04-16T03:38:20.538Z,75.58
2023-04-16T03:39:20.628Z,88.84
2023-04-16T03:40:20.591Z,104.15
2023-04-16T03:41:20.579Z,108.45
2023-04-16T03:42:20.606Z,121.75
2023-04-16T03:43:20.682Z,134.77
2023-04-16T03:44:20.756Z,143.60
2023-04-16T03:45:20.820Z,158.52
2023-04-16T03:46:21.032Z,167.89
2023-04-16T03:47:20.973Z,185.06
2023-04-16T03:48:20.966Z,200.59
2023-04-16T03:49:21.126Z,212.16
2023-04-16T03:50:21.174Z,210.13
2023-04-16T03:51:21.174Z,201.23
2023-04-16T03:52:21.180Z,191.76
2023-04-16T03:53:21.216Z,183.85
2023-04-16T03:54:22.742Z,181.82
2023-04-16T03:55:21.188Z,190.53
2023-04-16T03:56:21.216Z,193.60
2023-04-16T03:57:21.197Z,191.52
2023-04-16T03:58:21.199Z,186.94
2023-04-16T03:59:21.255Z,177.07
2023-04-16T04:00:21.574Z,183.98
2023-04-16T04:01:21.210Z,194.95
2023-04-16T04:02:21.393Z,214.33
2023-04-16T04:03:22.309Z,204.49
2023-04-16T04:04:21.341Z,210.21
2023-04-16T04:05:21.306Z,206.95
2023-04-16T04:06:21.333Z,223.74
2023-04-16T04:07:21.380Z,224.49
2023-04-16T04:08:21.426Z,250.25
2023-04-16T04:09:21.500Z,258.97
2023-04-16T04:10:21.510Z,253.02
2023-04-16T04:11:21.560Z,251.00
2023-04-16T04:12:21.596Z,230.16
2023-04-16T04:13:21.643Z,210.20
2023-04-16T04:14:21.701Z,201.87
2023-04-16T04:15:21.751Z,188.47
2023-04-16T04:16:21.876Z,176.82
2023-04-16T04:17:21.765Z,167.15
2023-04-16T04:18:21.773Z,155.70
2023-04-16T04:19:21.783Z,144.23
2023-04-16T04:20:21.754Z,125.84
2023-04-16T04:21:21.773Z,104.67
2023-04-16T04:22:21.776Z,97.23
2023-04-16T04:23:21.782Z,102.03
2023-04-16T04:24:21.816Z,114.49
2023-04-16T04:25:21.840Z,127.54
2023-04-16T04:26:21.882Z,128.60
2023-04-16T04:27:21.817Z,134.46
2023-04-16T04:28:21.862Z,132.39
2023-04-16T04:29:21.871Z,138.61
2023-04-16T04:30:21.921Z,142.72
2023-04-16T04:31:21.892Z,146.39
2023-04-16T04:32:21.997Z,160.29
2023-04-16T04:33:21.976Z,180.88
2023-04-16T04:34:22.023Z,180.07
2023-04-16T04:35:22.056Z,244.25
2023-04-16T04:36:22.005Z,248.29
2023-04-16T04:37:22.068Z,240.34
2023-04-16T04:38:22.109Z,222.06
2023-04-16T04:39:22.094Z,205.46
2023-04-16T04:40:22.205Z,180.89
2023-04-16T04:41:22.099Z,181.81
2023-04-16T04:42:22.115Z,185.03
2023-04-16T04:43:22.059Z,173.19
2023-04-16T04:44:22.060Z,168.15
2023-04-16T04:45:22.070Z,153.18
2023-04-16T04:46:22.271Z,127.90
2023-04-16T04:47:22.151Z,118.72
2023-04-16T04:48:22.180Z,125.63
2023-04-16T04:49:22.155Z,130.60
2023-04-16T04:50:22.197Z,133.99
2023-04-16T04:51:22.217Z,127.02
2023-04-16T04:52:22.183Z,129.94
2023-04-16T04:53:22.240Z,144.04
2023-04-16T04:54:22.321Z,150.47
2023-04-16T04:55:22.395Z,147.32
2023-04-16T04:56:22.412Z,127.45
2023-04-16T04:57:22.419Z,125.72
2023-04-16T04:58:22.426Z,113.18
2023-04-16T04:59:22.460Z,108.21
2023-04-16T05:00:22.512Z,100.58
2023-04-16T05:01:22.488Z,111.62
2023-04-16T05:02:22.612Z,114.11
2023-04-16T05:03:22.688Z,116.84
2023-04-16T05:04:22.500Z,123.54
2023-04-16T05:05:22.545Z,120.55
2023-04-16T05:06:23.476Z,122.14
2023-04-16T05:07:22.503Z,128.75
2023-04-16T05:08:22.503Z,134.39
2023-04-16T05:09:22.523Z,97.27
2023-04-16T05:10:22.511Z,64.82
2023-04-16T05:11:22.537Z,54.99
2023-04-16T05:12:22.564Z,59.51
2023-04-16T05:13:22.554Z,53.81
2023-04-16T05:14:22.601Z,41.88
2023-04-16T05:15:22.619Z,42.97
2023-04-16T05:16:22.738Z,55.41
2023-04-16T05:17:22.722Z,67.85
2023-04-16T05:18:22.732Z,88.04
2023-04-16T05:19:22.786Z,96.41
2023-04-16T05:20:22.876Z,96.71
2023-04-16T05:21:22.884Z,92.55
2023-04-16T05:22:22.946Z,91.09
2023-04-16T05:23:23.000Z,94.33
2023-04-16T05:24:23.063Z,95.20
2023-04-16T05:25:23.161Z,95.00
2023-04-16T05:26:23.186Z,101.35
2023-04-16T05:27:23.249Z,99.97
2023-04-16T05:28:23.305Z,78.73
2023-04-16T05:29:23.343Z,80.52
2023-04-16T05:30:23.395Z,80.85
2023-04-16T05:31:23.483Z,102.69
2023-04-16T05:32:23.521Z,118.80
2023-04-16T05:33:24.056Z,138.97
2023-04-16T05:34:23.607Z,147.90
2023-04-16T05:35:23.638Z,139.00
2023-04-16T05:36:23.645Z,130.04
2023-04-16T05:37:23.727Z,150.58
2023-04-16T05:38:23.785Z,181.34
2023-04-16T05:39:23.962Z,194.71
2023-04-16T05:40:23.923Z,203.38
2023-04-16T05:41:23.952Z,236.63
2023-04-16T05:42:24.052Z,238.04
2023-04-16T05:43:24.050Z,246.20
2023-04-16T05:44:24.100Z,250.00
2023-04-16T05:45:25.127Z,235.60
2023-04-16T05:46:24.147Z,218.92
2023-04-16T05:47:24.159Z,213.35
2023-04-16T05:48:24.166Z,213.39
2023-04-16T05:49:24.180Z,212.10
2023-04-16T05:50:24.214Z,212.96
2023-04-16T05:51:24.216Z,210.36
2023-04-16T05:52:24.241Z,214.13
2023-04-16T05:53:24.258Z,229.97
2023-04-16T05:54:24.327Z,208.10
2023-04-16T05:55:24.381Z,198.97
2023-04-16T05:56:24.431Z,189.68
2023-04-16T05:57:24.481Z,180.19
2023-04-16T05:58:24.560Z,181.12
2023-04-16T05:59:24.592Z,180.84
2023-04-16T06:00:24.592Z,195.14
2023-04-16T06:01:24.629Z,191.10
2023-04-16T06:02:24.797Z,178.67
2023-04-16T06:03:24.708Z,160.45
2023-04-16T06:04:24.658Z,145.44
2023-04-16T06:05:24.742Z,129.04
2023-04-16T06:06:24.775Z,133.30
2023-04-16T06:07:24.776Z,149.47
2023-04-16T06:08:24.861Z,180.96
2023-04-16T06:09:24.902Z,177.22
2023-04-16T06:10:24.939Z,167.48
2023-04-16T06:11:24.937Z,171.96
2023-04-16T06:12:25.066Z,183.10
2023-04-16T06:13:25.069Z,193.23
2023-04-16T06:14:25.139Z,201.20
2023-04-16T06:15:25.143Z,182.67
2023-04-16T06:16:25.294Z,177.06
2023-04-16T06:17:25.306Z,162.73
2023-04-16T06:18:25.283Z,156.51
2023-04-16T06:19:25.332Z,147.18
2023-04-16T06:20:25.426Z,149.71
2023-04-16T06:21:25.348Z,157.76
2023-04-16T06:22:25.441Z,164.58
2023-04-16T06:23:25.460Z,173.39
2023-04-16T06:24:25.551Z,162.54
2023-04-16T06:25:25.588Z,163.95
2023-04-16T06:26:25.645Z,147.98
2023-04-16T06:27:25.726Z,150.42
2023-04-16T06:28:25.796Z,153.31
2023-04-16T06:29:37.074Z,119.95
2023-04-16T06:30:26.798Z,109.32
2023-04-16T06:31:25.792Z,108.80
2023-04-16T06:32:25.788Z,116.24
2023-04-16T06:33:25.778Z,120.08
2023-04-16T06:34:25.783Z,118.26
2023-04-16T06:35:25.776Z,99.79
2023-04-16T06:36:25.753Z,90.76
2023-04-16T06:37:25.707Z,88.45
2023-04-16T06:38:25.719Z,106.59
2023-04-16T06:39:25.984Z,124.44
2023-04-16T06:40:25.740Z,158.57
2023-04-16T06:41:25.746Z,174.47
2023-04-16T06:42:25.698Z,186.92
2023-04-16T06:43:25.717Z,194.39
2023-04-16T06:44:25.669Z,176.14
2023-04-16T06:45:25.733Z,152.40
2023-04-16T06:46:25.796Z,139.61
2023-04-16T06:47:25.851Z,165.33
2023-04-16T06:48:25.791Z,173.55
2023-04-16T06:49:25.798Z,187.50
2023-04-16T06:50:25.898Z,189.33
2023-04-16T06:51:25.912Z,191.61
2023-04-16T06:52:25.920Z,207.96
2023-04-16T06:53:26.037Z,233.14
2023-04-16T06:54:25.958Z,233.45
2023-04-16T06:55:25.985Z,215.59
2023-04-16T06:56:26.004Z,212.17
2023-04-16T06:57:26.123Z,218.30
2023-04-16T06:58:26.147Z,218.26
2023-04-16T06:59:26.199Z,221.10
2023-04-16T07:00:26.249Z,222.92
2023-04-16T07:01:26.283Z,225.52
2023-04-16T07:02:26.398Z,220.31
2023-04-16T07:03:26.489Z,216.34
2023-04-16T07:04:26.418Z,217.98
2023-04-16T07:05:26.484Z,201.51
2023-04-16T07:06:26.417Z,179.20
2023-04-16T07:07:26.446Z,165.49
2023-04-16T07:08:26.465Z,169.77
2023-04-16T07:09:26.502Z,165.29
2023-04-16T07:10:26.512Z,145.85
2023-04-16T07:11:26.577Z,137.20
2023-04-16T07:12:26.633Z,136.94
2023-04-16T07:13:26.760Z,131.92
2023-04-16T07:14:26.742Z,127.06
2023-04-16T07:15:26.784Z,112.50
2023-04-16T07:16:26.816Z,118.80
2023-04-16T07:17:26.919Z,137.75
2023-04-16T07:18:26.934Z,171.21
2023-04-16T07:19:26.890Z,175.47
2023-04-16T07:20:26.942Z,170.49
2023-04-16T07:21:26.972Z,175.21
2023-04-16T07:22:26.949Z,190.23
2023-04-16T07:23:26.975Z,184.11
2023-04-16T07:24:27.002Z,194.28
2023-04-16T07:25:27.032Z,228.30
2023-04-16T07:26:27.029Z,241.99
2023-04-16T07:27:27.043Z,205.49
2023-04-16T07:28:27.052Z,185.84
2023-04-16T07:29:27.017Z,175.72
2023-04-16T07:30:27.057Z,149.60
2023-04-16T07:31:27.100Z,100.57
2023-04-16T07:32:27.213Z,60.88
2023-04-16T07:33:27.173Z,49.22
2023-04-16T07:34:27.199Z,34.36
2023-04-16T07:35:27.246Z,81.26
2023-04-16T07:36:27.247Z,88.06
2023-04-16T07:37:27.242Z,102.45
2023-04-16T07:38:27.271Z,111.11
2023-04-16T07:39:27.292Z,128.79
2023-04-16T07:40:27.365Z,147.42
2023-04-16T07:41:27.352Z,130.54
2023-04-16T07:42:27.446Z,98.81
2023-04-16T07:43:27.537Z,75.27
2023-04-16T07:44:27.593Z,62.10
2023-04-16T07:45:27.663Z,51.39
2023-04-16T07:46:30.723Z,75.19
2023-04-16T07:47:28.694Z,75.54
2023-04-16T07:48:27.650Z,79.10
2023-04-16T07:49:27.582Z,80.23
2023-04-16T07:50:27.673Z,69.82
2023-04-16T07:51:27.648Z,81.34
2023-04-16T07:52:27.608Z,99.83
2023-04-16T07:53:27.639Z,155.72
2023-04-16T07:54:29.071Z,134.12
2023-04-16T07:55:27.606Z,114.00
2023-04-16T07:56:27.575Z,109.04
2023-04-16T07:57:27.898Z,117.39
2023-04-16T07:58:27.568Z,81.44
2023-04-16T07:59:27.897Z,67.29
2023-04-16T08:00:27.691Z,66.96
2023-04-16T08:01:27.722Z,89.19
2023-04-16T08:02:27.848Z,109.99
2023-04-16T08:03:28.086Z,88.72
2023-04-16T08:04:28.032Z,45.46
2023-04-16T08:05:27.899Z,43.42
2023-04-16T08:06:27.904Z,26.65
2023-04-16T08:07:27.891Z,14.40
2023-04-16T08:08:27.904Z,31.17
2023-04-16T08:09:27.913Z,35.60
2023-04-16T08:10:27.931Z,36.59
2023-04-16T08:11:27.937Z,40.20
2023-04-16T08:12:27.898Z,64.28
2023-04-16T08:13:27.942Z,61.38
2023-04-16T08:14:27.964Z,55.99
2023-04-16T08:15:28.065Z,60.11
2023-04-16T08:16:28.138Z,46.90
2023-04-16T08:17:28.063Z,33.96
2023-04-16T08:18:28.130Z,42.85
2023-04-16T08:19:28.198Z,68.52
2023-04-16T08:20:28.293Z,103.13
2023-04-16T08:21:28.257Z,88.74
2023-04-16T08:22:28.317Z,106.30
2023-04-16T08:23:28.395Z,129.75
2023-04-16T08:24:28.348Z,144.77
2023-04-16T08:25:28.387Z,150.03
2023-04-16T08:26:28.386Z,161.90
2023-04-16T08:27:28.360Z,134.78
2023-04-16T08:28:28.366Z,116.42
2023-04-16T08:29:28.415Z,111.50
2023-04-16T08:30:28.390Z,112.29
2023-04-16T08:31:28.426Z,110.50
2023-04-16T08:32:28.418Z,110.28
2023-04-16T08:33:28.403Z,156.88
2023-04-16T08:34:28.392Z,142.73
2023-04-16T08:35:28.477Z,114.03
2023-04-16T08:36:28.433Z,117.53
2023-04-16T08:37:28.475Z,180.46
2023-04-16T08:38:28.493Z,174.60
2023-04-16T08:39:28.593Z,162.77
2023-04-16T08:40:28.554Z,130.51
2023-04-16T08:41:28.522Z,124.49
2023-04-16T08:42:29.168Z,98.57
2023-04-16T08:43:28.555Z,80.05
2023-04-16T08:44:28.580Z,74.33
2023-04-16T08:45:28.615Z,60.68
2023-04-16T08:46:28.673Z,44.75
2023-04-16T08:47:28.684Z,67.99
2023-04-16T08:48:28.705Z,90.90
2023-04-16T08:49:28.796Z,126.39
2023-04-16T08:50:28.819Z,133.52
2023-04-16T08:51:28.875Z,142.67
2023-04-16T08:52:28.946Z,161.76
2023-04-16T08:53:29.341Z,190.30
2023-04-16T08:54:29.054Z,133.45
2023-04-16T08:55:29.042Z,109.28
2023-04-16T08:56:29.069Z,95.99
2023-04-16T08:57:29.099Z,98.74
2023-04-16T08:58:29.137Z,93.56
2023-04-16T08:59:29.137Z,122.64
2023-04-16T09:00:29.140Z,151.03
2023-04-16T09:01:29.212Z,125.38
2023-04-16T09:02:29.337Z,117.63
2023-04-16T09:03:29.358Z,104.30
2023-04-16T09:04:29.535Z,80.78
2023-04-16T09:05:29.327Z,73.00
2023-04-16T09:06:29.286Z,50.91
2023-04-16T09:07:29.309Z,45.13
2023-04-16T09:08:29.358Z,53.65
2023-04-16T09:09:29.407Z,51.46
2023-04-16T09:10:29.427Z,38.67
2023-04-16T09:11:29.464Z,23.11
2023-04-16T09:12:29.433Z,29.64
2023-04-16T09:13:29.436Z,41.00
2023-04-16T09:14:29.470Z,55.15
2023-04-16T09:15:29.506Z,63.41
2023-04-16T09:16:29.513Z,40.26
2023-04-16T09:17:29.533Z,74.36
2023-04-16T09:18:29.477Z,92.70
2023-04-16T09:19:29.471Z,93.86
2023-04-16T09:20:29.545Z,106.37
2023-04-16T09:21:29.560Z,115.59
2023-04-16T09:22:29.552Z,124.19
2023-04-16T09:23:29.648Z,147.04
2023-04-16T09:24:29.622Z,177.05
2023-04-16T09:25:29.727Z,164.77
2023-04-16T09:26:29.653Z,117.47
2023-04-16T09:27:29.664Z,89.14
2023-04-16T09:28:29.683Z,107.82
2023-04-16T09:29:29.702Z,74.28
2023-04-16T09:30:29.721Z,56.77
2023-04-16T09:31:29.751Z,59.25
2023-04-16T09:32:29.789Z,32.53
2023-04-16T09:33:29.705Z,25.00
2023-04-16T09:34:29.740Z,25.24
2023-04-16T09:35:29.797Z,43.70
2023-04-16T09:36:29.761Z,48.14
2023-04-16T09:37:29.855Z,38.66
2023-04-16T09:38:29.775Z,21.06
2023-04-16T09:39:29.793Z,30.21
2023-04-16T09:40:29.796Z,45.65
2023-04-16T09:41:29.853Z,24.77
2023-04-16T09:42:29.864Z,18.57
2023-04-16T09:43:29.850Z,34.98
2023-04-16T09:44:29.860Z,40.11
2023-04-16T09:45:29.905Z,54.76
2023-04-16T09:46:29.892Z,79.28
2023-04-16T09:47:29.874Z,81.41
2023-04-16T09:48:29.950Z,104.79
2023-04-16T09:49:29.927Z,138.21
2023-04-16T09:50:30.053Z,160.56
2023-04-16T09:51:30.074Z,139.27
2023-04-16T09:52:30.159Z,105.92
2023-04-16T09:53:30.251Z,109.86
2023-04-16T09:54:30.248Z,146.53
2023-04-16T09:55:30.285Z,157.77
2023-04-16T09:56:30.284Z,75.59
2023-04-16T09:57:30.293Z,51.89
2023-04-16T09:58:30.289Z,40.96
2023-04-16T09:59:30.287Z,14.98
2023-04-16T10:00:30.293Z,9.66
2023-04-16T10:01:30.342Z,16.86
2023-04-16T10:02:30.433Z,21.98
2023-04-16T10:03:30.662Z,30.38
2023-04-16T10:04:30.496Z,18.59
2023-04-16T10:05:30.419Z,5.74
2023-04-16T10:06:30.431Z,18.74
2023-04-16T10:07:30.545Z,28.67
2023-04-16T10:08:30.408Z,58.04
2023-04-16T10:09:30.403Z,62.32
2023-04-16T10:10:30.526Z,86.97
2023-04-16T10:11:30.407Z,70.97
2023-04-16T10:12:30.467Z,77.16
2023-04-16T10:13:30.532Z,99.20
2023-04-16T10:14:30.543Z,89.44
2023-04-16T10:15:30.607Z,95.00
2023-04-16T10:16:30.623Z,110.41
2023-04-16T10:17:30.655Z,122.20
2023-04-16T10:18:30.605Z,136.93
2023-04-16T10:19:30.630Z,180.27
2023-04-16T10:20:30.730Z,157.62
2023-04-16T10:21:30.621Z,159.40
2023-04-16T10:22:30.645Z,163.16
2023-04-16T10:23:30.698Z,167.57
2023-04-16T10:24:30.764Z,151.98
2023-04-16T10:25:30.785Z,153.25
2023-04-16T10:26:30.774Z,155.74
2023-04-16T10:27:30.872Z,154.40
2023-04-16T10:28:30.788Z,160.79
2023-04-16T10:29:30.806Z,158.63
2023-04-16T10:30:30.797Z,165.89
2023-04-16T10:31:30.850Z,183.33
2023-04-16T10:32:30.838Z,191.35
2023-04-16T10:33:30.879Z,189.49
2023-04-16T10:34:30.846Z,144.67
2023-04-16T10:35:32.030Z,131.46
2023-04-16T10:36:30.879Z,106.08
2023-04-16T10:37:30.906Z,114.36
2023-04-16T10:38:30.997Z,130.10
2023-04-16T10:39:31.040Z,147.85
2023-04-16T10:40:31.099Z,161.50
2023-04-16T10:41:31.078Z,146.13
2023-04-16T10:42:31.137Z,125.17
2023-04-16T10:43:31.175Z,115.69
2023-04-16T10:44:31.226Z,99.48
2023-04-16T10:45:31.343Z,102.99
2023-04-16T10:46:31.422Z,107.76
2023-04-16T10:47:31.369Z,102.74
2023-04-16T10:48:42.338Z,92.09
2023-04-16T10:49:32.391Z,76.75
2023-04-16T10:50:31.428Z,72.63
2023-04-16T10:51:31.425Z,61.02
2023-04-16T10:52:31.363Z,57.79
2023-04-16T10:53:31.373Z,42.54
2023-04-16T10:54:31.377Z,42.86
2023-04-16T10:55:31.402Z,48.79
2023-04-16T10:56:31.334Z,63.85
2023-04-16T10:57:32.131Z,61.35
2023-04-16T10:58:31.361Z,73.20
2023-04-16T10:59:31.343Z,80.21
2023-04-16T11:00:31.656Z,77.92
2023-04-16T11:01:31.409Z,82.84
2023-04-16T11:02:31.544Z,79.66
2023-04-16T11:03:31.481Z,84.97
2023-04-16T11:04:31.483Z,79.53
2023-04-16T11:05:31.588Z,74.28
2023-04-16T11:06:31.583Z,78.10
2023-04-16T11:07:31.626Z,71.16
2023-04-16T11:08:32.056Z,68.93
2023-04-16T11:09:31.697Z,58.79
2023-04-16T11:10:31.812Z,61.66
2023-04-16T11:11:31.796Z,52.62
2023-04-16T11:12:31.803Z,41.82
2023-04-16T11:13:31.841Z,35.25
2023-04-16T11:14:31.832Z,38.74
2023-04-16T11:15:31.969Z,42.40
2023-04-16T11:16:31.950Z,43.98
2023-04-16T11:17:32.027Z,51.82
2023-04-16T11:18:32.095Z,62.80
2023-04-16T11:19:32.154Z,47.30
2023-04-16T11:20:32.161Z,51.89
2023-04-16T11:21:32.230Z,53.70
2023-04-16T11:22:32.260Z,97.21
2023-04-16T11:23:32.335Z,100.86
2023-04-16T11:24:32.365Z,92.70
2023-04-16T11:25:32.441Z,72.30
2023-04-16T11:26:32.737Z,118.16
2023-04-16T11:27:32.410Z,86.50
2023-04-16T11:28:32.389Z,96.53
2023-04-16T11:29:32.384Z,83.23
2023-04-16T11:30:32.410Z,97.39
2023-04-16T11:31:32.496Z,97.16
2023-04-16T11:32:32.494Z,85.75
2023-04-16T11:33:32.438Z,84.60
2023-04-16T11:34:32.435Z,89.31
2023-04-16T11:35:32.450Z,70.59
2023-04-16T11:36:32.515Z,51.50
2023-04-16T11:37:32.549Z,54.90
2023-04-16T11:38:32.591Z,37.33
2023-04-16T11:39:32.648Z,34.09
2023-04-16T11:40:32.748Z,41.28
2023-04-16T11:41:32.764Z,51.51
2023-04-16T11:42:32.823Z,68.70
2023-04-16T11:43:32.792Z,64.61
2023-04-16T11:44:32.795Z,75.15
2023-04-16T11:45:32.810Z,63.69
2023-04-16T11:46:32.845Z,51.88
2023-04-16T11:47:32.927Z,34.67
2023-04-16T11:48:32.917Z,47.23
2023-04-16T11:49:33.005Z,59.80
2023-04-16T11:50:33.034Z,55.96
2023-04-16T11:51:33.092Z,58.08
2023-04-16T11:52:33.130Z,60.87
2023-04-16T11:53:33.149Z,50.15
2023-04-16T11:54:33.218Z,52.14
2023-04-16T11:55:33.251Z,41.01
2023-04-16T11:56:33.324Z,24.21
2023-04-16T11:57:33.368Z,21.41
2023-04-16T11:58:33.298Z,41.00
2023-04-16T11:59:33.368Z,42.11
2023-04-16T12:00:33.433Z,23.19
2023-04-16T12:01:33.439Z,16.51
2023-04-16T12:02:33.632Z,19.36
2023-04-16T12:03:33.677Z,91.27
2023-04-16T12:04:33.670Z,102.43
2023-04-16T12:05:33.774Z,83.69
2023-04-16T12:06:33.600Z,79.47
2023-04-16T12:07:33.657Z,67.17
2023-04-16T12:08:33.741Z,58.99
2023-04-16T12:09:33.792Z,61.78
2023-04-16T12:10:33.848Z,71.65
2023-04-16T12:11:33.891Z,63.72
2023-04-16T12:12:33.919Z,64.44
2023-04-16T12:13:33.978Z,68.64
2023-04-16T12:14:34.000Z,43.70
2023-04-16T12:15:34.021Z,44.28
2023-04-16T12:16:35.817Z,54.78
2023-04-16T12:17:34.112Z,50.02
2023-04-16T12:18:34.332Z,42.73
2023-04-16T12:19:34.084Z,36.89
2023-04-16T12:20:34.118Z,27.60
2023-04-16T12:21:34.160Z,25.63
2023-04-16T12:22:36.599Z,24.54
2023-04-16T12:23:34.259Z,28.23
2023-04-16T12:24:34.204Z,33.24
2023-04-16T12:25:34.221Z,35.58
2023-04-16T12:26:34.250Z,44.66
2023-04-16T12:27:34.184Z,56.76
2023-04-16T12:28:34.297Z,55.29
2023-04-16T12:29:34.168Z,49.39
2023-04-16T12:30:34.202Z,47.91
2023-04-16T12:31:34.163Z,41.06
2023-04-16T12:32:34.541Z,41.38
2023-04-16T12:33:34.137Z,44.26
2023-04-16T12:34:49.054Z,47.34
2023-04-16T12:35:35.182Z,41.67
2023-04-16T12:36:34.109Z,54.07
2023-04-16T12:37:34.143Z,72.35
2023-04-16T12:38:34.146Z,124.75
2023-04-16T12:39:34.117Z,174.34
2023-04-16T12:40:34.089Z,143.17